48.7°F
Current conditions from King Hill
Updated every 5 minutes
 
  Saturday October 25, 2014

Station Historical Data
Daily Summary for November 2, 2011 Units:  Both    English   Metric
« Previous Day
Next Day »
Daily Weekly Monthly Yearly Custom
  High: Low: Average:
Temperature: 58.4 °F /  14.7 °C 34.4 °F /  1.3 °C 46.1 °F /  7.8 °C
Dew Point: 38.1 °F /  3.4 °C 29.3 °F /  -1.5 °C 34.1 °F /  1.2 °C
Humidity: 83% 46% 64%
Wind Speed: 10.0mph /  16.1km/h - 5.4mph /  8.7km/h
Wind Gust: 19.0mph /  30.6km/h - -
Wind- - SSW
Pressure: 30.31 in /  1026.3 hPa 30.10 in /  1019.2 hPa -
Precipitation: 0.00 in /  0 mm    
Historical Graphs
 
 
Tabular Data for November 2, 2011
Time Temperature Dew Point Pressure Wind Wind Speed Wind Gust Humidity Daily Rainfall
00:00 38.9 °F /  3.8 °C 31.3 °F /  -0.4 °C 30.28in /  1025.3hPa SSW 2.0mph /  3.2km/h 7.0mph /  11.3km/h 74% 0.00in /  0mm
00:05 39.0 °F /  3.9 °C 31.4 °F /  -0.3 °C 30.28in /  1025.3hPa SSW 2.0mph /  3.2km/h 6.0mph /  9.7km/h 74% 0.00in /  0mm
00:10 39.2 °F /  4 °C 31.6 °F /  -0.2 °C 30.28in /  1025.3hPa SSW 2.0mph /  3.2km/h 6.0mph /  9.7km/h 74% 0.00in /  0mm
00:15 39.2 °F /  4 °C 31.6 °F /  -0.2 °C 30.28in /  1025.3hPa SSW 3.0mph /  4.8km/h 6.0mph /  9.7km/h 74% 0.00in /  0mm
00:20 39.3 °F /  4.1 °C 31.7 °F /  -0.2 °C 30.27in /  1024.9hPa SSW 2.0mph /  3.2km/h 6.0mph /  9.7km/h 74% 0.00in /  0mm
00:25 39.2 °F /  4 °C 31.3 °F /  -0.4 °C 30.28in /  1025.3hPa SSW 2.0mph /  3.2km/h 6.0mph /  9.7km/h 73% 0.00in /  0mm
00:30 39.1 °F /  3.9 °C 31.2 °F /  -0.4 °C 30.28in /  1025.3hPa SSW 2.0mph /  3.2km/h 5.0mph /  8km/h 73% 0.00in /  0mm
00:40 38.1 °F /  3.4 °C 30.9 °F /  -0.6 °C 30.28in /  1025.3hPa SSW 3.0mph /  4.8km/h 5.0mph /  8km/h 75% 0.00in /  0mm
00:45 37.8 °F /  3.2 °C 30.6 °F /  -0.8 °C 30.28in /  1025.3hPa SSW 1.0mph /  1.6km/h 5.0mph /  8km/h 75% 0.00in /  0mm
00:50 37.5 °F /  3.1 °C 30.6 °F /  -0.8 °C 30.28in /  1025.3hPa Calm   4.0mph /  6.4km/h 76% 0.00in /  0mm
00:55 36.9 °F /  2.7 °C 30.0 °F /  -1.1 °C 30.28in /  1025.3hPa Calm   2.0mph /  3.2km/h 76% 0.00in /  0mm
01:00 36.6 °F /  2.6 °C 30.1 °F /  -1.1 °C 30.28in /  1025.3hPa Calm   2.0mph /  3.2km/h 77% 0.00in /  0mm
01:05 36.4 °F /  2.4 °C 30.2 °F /  -1 °C 30.28in /  1025.3hPa Calm   1.0mph /  1.6km/h 78% 0.00in /  0mm
01:10 36.4 °F /  2.4 °C 30.5 °F /  -0.8 °C 30.28in /  1025.3hPa Calm     79% 0.00in /  0mm
01:15 36.6 °F /  2.6 °C 30.7 °F /  -0.7 °C 30.29in /  1025.6hPa Calm   1.0mph /  1.6km/h 79% 0.00in /  0mm
01:20 36.6 °F /  2.6 °C 30.7 °F /  -0.7 °C 30.29in /  1025.6hPa Calm   1.0mph /  1.6km/h 79% 0.00in /  0mm
01:25 36.4 °F /  2.4 °C 30.5 °F /  -0.8 °C 30.29in /  1025.6hPa SSW 1.0mph /  1.6km/h 4.0mph /  6.4km/h 79% 0.00in /  0mm
01:30 36.3 °F /  2.4 °C 30.4 °F /  -0.9 °C 30.29in /  1025.6hPa Calm   4.0mph /  6.4km/h 79% 0.00in /  0mm
01:35 36.2 °F /  2.3 °C 30.3 °F /  -0.9 °C 30.29in /  1025.6hPa Calm   1.0mph /  1.6km/h 79% 0.00in /  0mm
01:45 36.4 °F /  2.4 °C 30.8 °F /  -0.7 °C 30.28in /  1025.3hPa Calm   4.0mph /  6.4km/h 80% 0.00in /  0mm
01:50 36.2 °F /  2.3 °C 30.3 °F /  -0.9 °C 30.28in /  1025.3hPa Calm   4.0mph /  6.4km/h 79% 0.00in /  0mm
01:55 36.0 °F /  2.2 °C 30.1 °F /  -1.1 °C 30.28in /  1025.3hPa Calm   4.0mph /  6.4km/h 79% 0.00in /  0mm
02:00 35.9 °F /  2.2 °C 30.0 °F /  -1.1 °C 30.28in /  1025.3hPa Calm   4.0mph /  6.4km/h 79% 0.00in /  0mm
02:05 35.7 °F /  2.1 °C 30.1 °F /  -1.1 °C 30.28in /  1025.3hPa SSW 1.0mph /  1.6km/h 4.0mph /  6.4km/h 80% 0.00in /  0mm
02:10 35.6 °F /  2 °C 30.0 °F /  -1.1 °C 30.28in /  1025.3hPa SSW 2.0mph /  3.2km/h 4.0mph /  6.4km/h 80% 0.00in /  0mm
02:15 35.3 °F /  1.8 °C 29.8 °F /  -1.2 °C 30.28in /  1025.3hPa SSW 1.0mph /  1.6km/h 4.0mph /  6.4km/h 80% 0.00in /  0mm
02:20 35.1 °F /  1.7 °C 29.6 °F /  -1.3 °C 30.28in /  1025.3hPa Calm   4.0mph /  6.4km/h 80% 0.00in /  0mm
02:25 35.0 °F /  1.7 °C 29.8 °F /  -1.2 °C 30.28in /  1025.3hPa Calm   2.0mph /  3.2km/h 81% 0.00in /  0mm
02:30 34.8 °F /  1.6 °C 29.6 °F /  -1.3 °C 30.28in /  1025.3hPa Calm   4.0mph /  6.4km/h 81% 0.00in /  0mm
02:35 34.5 °F /  1.4 °C 29.3 °F /  -1.5 °C 30.28in /  1025.3hPa SSW 1.0mph /  1.6km/h 5.0mph /  8km/h 81% 0.00in /  0mm
02:40 34.4 °F /  1.3 °C 29.5 °F /  -1.4 °C 30.28in /  1025.3hPa SSW 2.0mph /  3.2km/h 5.0mph /  8km/h 82% 0.00in /  0mm
02:45 34.4 °F /  1.3 °C 29.5 °F /  -1.4 °C 30.28in /  1025.3hPa SSW 1.0mph /  1.6km/h 5.0mph /  8km/h 82% 0.00in /  0mm
02:50 34.4 °F /  1.3 °C 29.5 °F /  -1.4 °C 30.28in /  1025.3hPa SSW 1.0mph /  1.6km/h 4.0mph /  6.4km/h 82% 0.00in /  0mm
02:55 34.4 °F /  1.3 °C 29.8 °F /  -1.2 °C 30.28in /  1025.3hPa SSW 2.0mph /  3.2km/h 5.0mph /  8km/h 83% 0.00in /  0mm
03:00 35.0 °F /  1.7 °C 30.4 °F /  -0.9 °C 30.28in /  1025.3hPa SSW 2.0mph /  3.2km/h 5.0mph /  8km/h 83% 0.00in /  0mm
03:05 35.5 °F /  1.9 °C 30.6 °F /  -0.8 °C 30.28in /  1025.3hPa SSW 2.0mph /  3.2km/h 5.0mph /  8km/h 82% 0.00in /  0mm
03:10 35.7 °F /  2.1 °C 30.8 °F /  -0.7 °C 30.28in /  1025.3hPa Calm   5.0mph /  8km/h 82% 0.00in /  0mm
03:15 35.9 °F /  2.2 °C 30.9 °F /  -0.6 °C 30.28in /  1025.3hPa SW 3.0mph /  4.8km/h 6.0mph /  9.7km/h 82% 0.00in /  0mm
03:20 36.0 °F /  2.2 °C 30.7 °F /  -0.7 °C 30.28in /  1025.3hPa SSW 2.0mph /  3.2km/h 6.0mph /  9.7km/h 81% 0.00in /  0mm
03:30 35.7 °F /  2.1 °C 30.4 °F /  -0.9 °C 30.28in /  1025.3hPa SSW 3.0mph /  4.8km/h 5.0mph /  8km/h 81% 0.00in /  0mm
03:35 35.6 °F /  2 °C 30.4 °F /  -0.9 °C 30.28in /  1025.3hPa SSW 3.0mph /  4.8km/h 5.0mph /  8km/h 81% 0.00in /  0mm
03:40 35.4 °F /  1.9 °C 30.2 °F /  -1 °C 30.28in /  1025.3hPa SSW 3.0mph /  4.8km/h 5.0mph /  8km/h 81% 0.00in /  0mm
03:45 35.1 °F /  1.7 °C 29.9 °F /  -1.2 °C 30.28in /  1025.3hPa SSW 2.0mph /  3.2km/h 5.0mph /  8km/h 81% 0.00in /  0mm
03:50 35.1 °F /  1.7 °C 30.2 °F /  -1 °C 30.28in /  1025.3hPa SSW 4.0mph /  6.4km/h 5.0mph /  8km/h 82% 0.00in /  0mm
03:55 35.7 °F /  2.1 °C 30.8 °F /  -0.7 °C 30.28in /  1025.3hPa SSW 4.0mph /  6.4km/h 6.0mph /  9.7km/h 82% 0.00in /  0mm
04:00 36.0 °F /  2.2 °C 30.7 °F /  -0.7 °C 30.28in /  1025.3hPa SSW 4.0mph /  6.4km/h 6.0mph /  9.7km/h 81% 0.00in /  0mm
04:05 36.1 °F /  2.3 °C 30.8 °F /  -0.7 °C 30.28in /  1025.3hPa SSW 1.0mph /  1.6km/h 6.0mph /  9.7km/h 81% 0.00in /  0mm
04:10 36.2 °F /  2.3 °C 30.6 °F /  -0.8 °C 30.28in /  1025.3hPa SSW 2.0mph /  3.2km/h 5.0mph /  8km/h 80% 0.00in /  0mm
04:15 36.3 °F /  2.4 °C 30.7 °F /  -0.7 °C 30.28in /  1025.3hPa SSW 2.0mph /  3.2km/h 6.0mph /  9.7km/h 80% 0.00in /  0mm
04:20 36.2 °F /  2.3 °C 30.9 °F /  -0.6 °C 30.28in /  1025.3hPa SSW 1.0mph /  1.6km/h 6.0mph /  9.7km/h 81% 0.00in /  0mm
04:25 36.5 °F /  2.5 °C 31.2 °F /  -0.4 °C 30.28in /  1025.3hPa SSW 3.0mph /  4.8km/h 6.0mph /  9.7km/h 81% 0.00in /  0mm
04:30 36.8 °F /  2.7 °C 31.2 °F /  -0.4 °C 30.28in /  1025.3hPa SSW 1.0mph /  1.6km/h 6.0mph /  9.7km/h 80% 0.00in /  0mm
04:35 37.1 °F /  2.8 °C 31.5 °F /  -0.3 °C 30.28in /  1025.3hPa SSW 2.0mph /  3.2km/h 6.0mph /  9.7km/h 80% 0.00in /  0mm
04:40 37.4 °F /  3 °C 31.8 °F /  -0.1 °C 30.29in /  1025.6hPa SSW 3.0mph /  4.8km/h 7.0mph /  11.3km/h 80% 0.00in /  0mm
04:45 37.7 °F /  3.2 °C 31.8 °F /  -0.1 °C 30.29in /  1025.6hPa SSW 2.0mph /  3.2km/h 7.0mph /  11.3km/h 79% 0.00in /  0mm
04:50 37.6 °F /  3.1 °C 31.4 °F /  -0.3 °C 30.29in /  1025.6hPa SSW 3.0mph /  4.8km/h 7.0mph /  11.3km/h 78% 0.00in /  0mm
04:55 37.5 °F /  3.1 °C 31.3 °F /  -0.4 °C 30.29in /  1025.6hPa SW 4.0mph /  6.4km/h 7.0mph /  11.3km/h 78% 0.00in /  0mm
05:00 37.6 °F /  3.1 °C 31.7 °F /  -0.2 °C 30.29in /  1025.6hPa SSW 3.0mph /  4.8km/h 7.0mph /  11.3km/h 79% 0.00in /  0mm
05:05 37.7 °F /  3.2 °C 31.8 °F /  -0.1 °C 30.29in /  1025.6hPa SSW 4.0mph /  6.4km/h 7.0mph /  11.3km/h 79% 0.00in /  0mm
05:10 37.8 °F /  3.2 °C 31.6 °F /  -0.2 °C 30.29in /  1025.6hPa SSW 3.0mph /  4.8km/h 7.0mph /  11.3km/h 78% 0.00in /  0mm
05:15 37.9 °F /  3.3 °C 31.7 °F /  -0.2 °C 30.29in /  1025.6hPa SSW 4.0mph /  6.4km/h 7.0mph /  11.3km/h 78% 0.00in /  0mm
05:20 38.5 °F /  3.6 °C 32.2 °F /  0.1 °C 30.29in /  1025.6hPa SSW 2.0mph /  3.2km/h 8.0mph /  12.9km/h 78% 0.00in /  0mm
05:25 38.9 °F /  3.8 °C 32.3 °F /  0.2 °C 30.29in /  1025.6hPa SW 3.0mph /  4.8km/h 8.0mph /  12.9km/h 77% 0.00in /  0mm
05:30 39.0 °F /  3.9 °C 32.1 °F /  0.1 °C 30.29in /  1025.6hPa SSW 2.0mph /  3.2km/h 7.0mph /  11.3km/h 76% 0.00in /  0mm
05:40 38.7 °F /  3.7 °C 31.8 °F /  -0.1 °C 30.29in /  1025.6hPa SSW 2.0mph /  3.2km/h 7.0mph /  11.3km/h 76% 0.00in /  0mm
05:45 38.8 °F /  3.8 °C 31.9 °F /  -0.1 °C 30.29in /  1025.6hPa SSW 3.0mph /  4.8km/h 7.0mph /  11.3km/h 76% 0.00in /  0mm
05:50 38.9 °F /  3.8 °C 32.0 °F /  0 °C 30.29in /  1025.6hPa SSW 5.0mph /  8km/h 7.0mph /  11.3km/h 76% 0.00in /  0mm
05:55 38.9 °F /  3.8 °C 32.0 °F /  0 °C 30.30in /  1026hPa SSW 4.0mph /  6.4km/h 7.0mph /  11.3km/h 76% 0.00in /  0mm
06:00 38.6 °F /  3.7 °C 31.7 °F /  -0.2 °C 30.30in /  1026hPa SSW 4.0mph /  6.4km/h 7.0mph /  11.3km/h 76% 0.00in /  0mm
06:05 38.4 °F /  3.6 °C 31.5 °F /  -0.3 °C 30.30in /  1026hPa SSW 4.0mph /  6.4km/h 7.0mph /  11.3km/h 76% 0.00in /  0mm
06:10 38.3 °F /  3.5 °C 31.7 °F /  -0.2 °C 30.29in /  1025.6hPa SSW 3.0mph /  4.8km/h 7.0mph /  11.3km/h 77% 0.00in /  0mm
06:20 38.8 °F /  3.8 °C 31.9 °F /  -0.1 °C 30.29in /  1025.6hPa SW 4.0mph /  6.4km/h 9.0mph /  14.5km/h 76% 0.00in /  0mm
06:25 38.4 °F /  3.6 °C 31.5 °F /  -0.3 °C 30.29in /  1025.6hPa SSW 4.0mph /  6.4km/h 7.0mph /  11.3km/h 76% 0.00in /  0mm
06:30 38.3 °F /  3.5 °C 31.7 °F /  -0.2 °C 30.29in /  1025.6hPa SSW 2.0mph /  3.2km/h 9.0mph /  14.5km/h 77% 0.00in /  0mm
06:35 38.4 °F /  3.6 °C 31.8 °F /  -0.1 °C 30.29in /  1025.6hPa SSW 3.0mph /  4.8km/h 9.0mph /  14.5km/h 77% 0.00in /  0mm
06:40 38.5 °F /  3.6 °C 31.9 °F /  -0.1 °C 30.29in /  1025.6hPa SSW 3.0mph /  4.8km/h 7.0mph /  11.3km/h 77% 0.00in /  0mm
06:45 38.5 °F /  3.6 °C 31.9 °F /  -0.1 °C 30.29in /  1025.6hPa SSW 2.0mph /  3.2km/h 7.0mph /  11.3km/h 77% 0.00in /  0mm
06:50 38.6 °F /  3.7 °C 32.0 °F /  0 °C 30.29in /  1025.6hPa SSW 2.0mph /  3.2km/h 7.0mph /  11.3km/h 77% 0.00in /  0mm
06:55 38.7 °F /  3.7 °C 32.1 °F /  0.1 °C 30.29in /  1025.6hPa SSW 2.0mph /  3.2km/h 7.0mph /  11.3km/h 77% 0.00in /  0mm
07:00 38.7 °F /  3.7 °C 32.1 °F /  0.1 °C 30.29in /  1025.6hPa SSW 3.0mph /  4.8km/h 9.0mph /  14.5km/h 77% 0.00in /  0mm
07:05 38.6 °F /  3.7 °C 32.0 °F /  0 °C 30.29in /  1025.6hPa SW 2.0mph /  3.2km/h 9.0mph /  14.5km/h 77% 0.00in /  0mm
07:10 38.5 °F /  3.6 °C 31.9 °F /  -0.1 °C 30.29in /  1025.6hPa Calm   6.0mph /  9.7km/h 77% 0.00in /  0mm
07:15 38.3 °F /  3.5 °C 31.7 °F /  -0.2 °C 30.30in /  1026hPa SSW 2.0mph /  3.2km/h 6.0mph /  9.7km/h 77% 0.00in /  0mm
07:20 38.0 °F /  3.3 °C 31.4 °F /  -0.3 °C 30.30in /  1026hPa SSW 2.0mph /  3.2km/h 5.0mph /  8km/h 77% 0.00in /  0mm
07:25 37.7 °F /  3.2 °C 31.1 °F /  -0.5 °C 30.30in /  1026hPa SSW 1.0mph /  1.6km/h 5.0mph /  8km/h 77% 0.00in /  0mm
07:30 37.5 °F /  3.1 °C 31.3 °F /  -0.4 °C 30.30in /  1026hPa SSW 2.0mph /  3.2km/h 5.0mph /  8km/h 78% 0.00in /  0mm
07:40 37.8 °F /  3.2 °C 31.6 °F /  -0.2 °C 30.30in /  1026hPa SSW 1.0mph /  1.6km/h 7.0mph /  11.3km/h 78% 0.00in /  0mm
07:45 37.9 °F /  3.3 °C 31.7 °F /  -0.2 °C 30.30in /  1026hPa SSW 3.0mph /  4.8km/h 7.0mph /  11.3km/h 78% 0.00in /  0mm
07:50 38.5 °F /  3.6 °C 32.2 °F /  0.1 °C 30.30in /  1026hPa SSW 4.0mph /  6.4km/h 8.0mph /  12.9km/h 78% 0.00in /  0mm
07:55 39.0 °F /  3.9 °C 32.4 °F /  0.2 °C 30.30in /  1026hPa SSW 4.0mph /  6.4km/h 8.0mph /  12.9km/h 77% 0.00in /  0mm
08:00 39.5 °F /  4.2 °C 32.6 °F /  0.3 °C 30.30in /  1026hPa SSW 3.0mph /  4.8km/h 9.0mph /  14.5km/h 76% 0.00in /  0mm
08:05 39.9 °F /  4.4 °C 32.6 °F /  0.3 °C 30.31in /  1026.3hPa SSW 4.0mph /  6.4km/h 10.0mph /  16.1km/h 75% 0.00in /  0mm
08:10 40.0 °F /  4.4 °C 32.7 °F /  0.4 °C 30.31in /  1026.3hPa SSW 4.0mph /  6.4km/h 10.0mph /  16.1km/h 75% 0.00in /  0mm
08:15 40.0 °F /  4.4 °C 32.7 °F /  0.4 °C 30.31in /  1026.3hPa SSW 5.0mph /  8km/h 8.0mph /  12.9km/h 75% 0.00in /  0mm
08:20 40.1 °F /  4.5 °C 32.5 °F /  0.3 °C 30.31in /  1026.3hPa SSW 4.0mph /  6.4km/h 10.0mph /  16.1km/h 74% 0.00in /  0mm
08:25 40.2 °F /  4.6 °C 32.6 °F /  0.3 °C 30.31in /  1026.3hPa SSW 5.0mph /  8km/h 10.0mph /  16.1km/h 74% 0.00in /  0mm
08:30 40.6 °F /  4.8 °C 32.6 °F /  0.3 °C 30.31in /  1026.3hPa SSW 5.0mph /  8km/h 11.0mph /  17.7km/h 73% 0.00in /  0mm
08:35 41.0 °F /  5 °C 32.7 °F /  0.4 °C 30.31in /  1026.3hPa SSW 6.0mph /  9.7km/h 11.0mph /  17.7km/h 72% 0.00in /  0mm
08:40 41.3 °F /  5.2 °C 33.0 °F /  0.6 °C 30.31in /  1026.3hPa SSW 5.0mph /  8km/h 12.0mph /  19.3km/h 72% 0.00in /  0mm
08:45 41.4 °F /  5.2 °C 33.1 °F /  0.6 °C 30.31in /  1026.3hPa SSW 3.0mph /  4.8km/h 12.0mph /  19.3km/h 72% 0.00in /  0mm
08:50 41.6 °F /  5.3 °C 33.2 °F /  0.7 °C 30.31in /  1026.3hPa SSW 6.0mph /  9.7km/h 10.0mph /  16.1km/h 72% 0.00in /  0mm
08:55 41.9 °F /  5.5 °C 33.2 °F /  0.7 °C 30.31in /  1026.3hPa SSW 5.0mph /  8km/h 13.0mph /  20.9km/h 71% 0.00in /  0mm
09:00 42.0 °F /  5.6 °C 33.3 °F /  0.7 °C 30.31in /  1026.3hPa South 2.0mph /  3.2km/h 13.0mph /  20.9km/h 71% 0.00in /  0mm
09:05 42.0 °F /  5.6 °C 33.3 °F /  0.7 °C 30.31in /  1026.3hPa SSW 5.0mph /  8km/h 10.0mph /  16.1km/h 71% 0.00in /  0mm
09:10 42.1 °F /  5.6 °C 33.4 °F /  0.8 °C 30.31in /  1026.3hPa SSW 5.0mph /  8km/h 11.0mph /  17.7km/h 71% 0.00in /  0mm
09:15 42.2 °F /  5.7 °C 33.5 °F /  0.8 °C 30.31in /  1026.3hPa SSW 5.0mph /  8km/h 11.0mph /  17.7km/h 71% 0.00in /  0mm
09:20 42.4 °F /  5.8 °C 33.3 °F /  0.7 °C 30.30in /  1026hPa SSW 5.0mph /  8km/h 11.0mph /  17.7km/h 70% 0.00in /  0mm
09:25 42.8 °F /  6 °C 33.7 °F /  0.9 °C 30.31in /  1026.3hPa SSW 5.0mph /  8km/h 12.0mph /  19.3km/h 70% 0.00in /  0mm
09:30 43.6 °F /  6.4 °C 34.1 °F /  1.2 °C 30.31in /  1026.3hPa SSW 6.0mph /  9.7km/h 13.0mph /  20.9km/h 69% 0.00in /  0mm
09:35 44.3 °F /  6.8 °C 34.0 °F /  1.1 °C 30.30in /  1026hPa SSW 7.0mph /  11.3km/h 13.0mph /  20.9km/h 67% 0.00in /  0mm
09:40 44.9 °F /  7.2 °C 34.6 °F /  1.4 °C 30.30in /  1026hPa SSW 5.0mph /  8km/h 12.0mph /  19.3km/h 67% 0.00in /  0mm
09:45 45.2 °F /  7.3 °C 33.8 °F /  1 °C 30.30in /  1026hPa SSW 7.0mph /  11.3km/h 12.0mph /  19.3km/h 64% 0.00in /  0mm
09:50 45.4 °F /  7.4 °C 34.3 °F /  1.3 °C 30.30in /  1026hPa SSW 6.0mph /  9.7km/h 12.0mph /  19.3km/h 65% 0.00in /  0mm
09:55 45.6 °F /  7.6 °C 34.1 °F /  1.2 °C 30.30in /  1026hPa SW 8.0mph /  12.9km/h 12.0mph /  19.3km/h 64% 0.00in /  0mm
10:00 45.6 °F /  7.6 °C 34.5 °F /  1.4 °C 30.30in /  1026hPa SSW 6.0mph /  9.7km/h 12.0mph /  19.3km/h 65% 0.00in /  0mm
10:05 45.7 °F /  7.6 °C 34.2 °F /  1.2 °C 30.30in /  1026hPa SSW 8.0mph /  12.9km/h 12.0mph /  19.3km/h 64% 0.00in /  0mm
10:10 46.0 °F /  7.8 °C 34.1 °F /  1.2 °C 30.29in /  1025.6hPa SSW 8.0mph /  12.9km/h 13.0mph /  20.9km/h 63% 0.00in /  0mm
10:15 46.3 °F /  7.9 °C 34.8 °F /  1.6 °C 30.29in /  1025.6hPa SW 7.0mph /  11.3km/h 13.0mph /  20.9km/h 64% 0.00in /  0mm
10:20 46.8 °F /  8.2 °C 34.9 °F /  1.6 °C 30.29in /  1025.6hPa SSW 7.0mph /  11.3km/h 13.0mph /  20.9km/h 63% 0.00in /  0mm
10:25 47.2 °F /  8.4 °C 34.4 °F /  1.3 °C 30.29in /  1025.6hPa SSW 9.0mph /  14.5km/h 15.0mph /  24.1km/h 61% 0.00in /  0mm
10:35 47.5 °F /  8.6 °C 34.7 °F /  1.5 °C 30.29in /  1025.6hPa SSW 6.0mph /  9.7km/h 16.0mph /  25.7km/h 61% 0.00in /  0mm
10:40 47.8 °F /  8.8 °C 35.0 °F /  1.7 °C 30.28in /  1025.3hPa SSW 6.0mph /  9.7km/h 16.0mph /  25.7km/h 61% 0.00in /  0mm
10:45 47.9 °F /  8.8 °C 35.1 °F /  1.7 °C 30.28in /  1025.3hPa SSW 8.0mph /  12.9km/h 15.0mph /  24.1km/h 61% 0.00in /  0mm
10:50 48.3 °F /  9.1 °C 35.1 °F /  1.7 °C 30.28in /  1025.3hPa SSW 7.0mph /  11.3km/h 15.0mph /  24.1km/h 60% 0.00in /  0mm
10:55 48.5 °F /  9.2 °C 35.3 °F /  1.8 °C 30.28in /  1025.3hPa SSW 7.0mph /  11.3km/h 15.0mph /  24.1km/h 60% 0.00in /  0mm
11:00 49.2 °F /  9.6 °C 35.9 °F /  2.2 °C 30.28in /  1025.3hPa SW 6.0mph /  9.7km/h 13.0mph /  20.9km/h 60% 0.00in /  0mm
11:05 49.6 °F /  9.8 °C 35.4 °F /  1.9 °C 30.28in /  1025.3hPa SSW 9.0mph /  14.5km/h 16.0mph /  25.7km/h 58% 0.00in /  0mm
11:10 49.7 °F /  9.8 °C 35.5 °F /  1.9 °C 30.28in /  1025.3hPa SSW 8.0mph /  12.9km/h 17.0mph /  27.4km/h 58% 0.00in /  0mm
11:15 49.9 °F /  9.9 °C 35.7 °F /  2.1 °C 30.28in /  1025.3hPa SSW 8.0mph /  12.9km/h 19.0mph /  30.6km/h 58% 0.00in /  0mm
11:20 50.4 °F /  10.2 °C 35.3 °F /  1.8 °C 30.28in /  1025.3hPa SW 9.0mph /  14.5km/h 19.0mph /  30.6km/h 56% 0.00in /  0mm
11:25 50.7 °F /  10.4 °C 36.0 °F /  2.2 °C 30.28in /  1025.3hPa SSW 7.0mph /  11.3km/h 15.0mph /  24.1km/h 57% 0.00in /  0mm
11:35 51.8 °F /  11 °C 35.7 °F /  2.1 °C 30.27in /  1024.9hPa SSW 8.0mph /  12.9km/h 14.0mph /  22.5km/h 54% 0.00in /  0mm
11:40 52.1 °F /  11.2 °C 36.0 °F /  2.2 °C 30.27in /  1024.9hPa SSW 7.0mph /  11.3km/h 14.0mph /  22.5km/h 54% 0.00in /  0mm
11:50 52.1 °F /  11.2 °C 36.0 °F /  2.2 °C 30.27in /  1024.9hPa SSW 9.0mph /  14.5km/h 15.0mph /  24.1km/h 54% 0.00in /  0mm
11:55 52.2 °F /  11.2 °C 36.1 °F /  2.3 °C 30.26in /  1024.6hPa SSW 7.0mph /  11.3km/h 16.0mph /  25.7km/h 54% 0.00in /  0mm
12:00 52.6 °F /  11.4 °C 36.0 °F /  2.2 °C 30.26in /  1024.6hPa SSW 6.0mph /  9.7km/h 16.0mph /  25.7km/h 53% 0.00in /  0mm
12:05 53.0 °F /  11.7 °C 35.9 °F /  2.2 °C 30.26in /  1024.6hPa SSW 7.0mph /  11.3km/h 16.0mph /  25.7km/h 52% 0.00in /  0mm
12:10 53.0 °F /  11.7 °C 35.9 °F /  2.2 °C 30.26in /  1024.6hPa SSW 9.0mph /  14.5km/h 17.0mph /  27.4km/h 52% 0.00in /  0mm
12:15 53.6 °F /  12 °C 36.4 °F /  2.4 °C 30.26in /  1024.6hPa SW 5.0mph /  8km/h 17.0mph /  27.4km/h 52% 0.00in /  0mm
12:20 54.3 °F /  12.4 °C 37.1 °F /  2.8 °C 30.25in /  1024.3hPa South 6.0mph /  9.7km/h 16.0mph /  25.7km/h 52% 0.00in /  0mm
12:25 54.4 °F /  12.4 °C 36.7 °F /  2.6 °C 30.25in /  1024.3hPa SSW 6.0mph /  9.7km/h 14.0mph /  22.5km/h 51% 0.00in /  0mm
12:30 54.1 °F /  12.3 °C 36.4 °F /  2.4 °C 30.25in /  1024.3hPa SW 8.0mph /  12.9km/h 14.0mph /  22.5km/h 51% 0.00in /  0mm
12:35 54.2 °F /  12.3 °C 37.4 °F /  3 °C 30.24in /  1023.9hPa SSW 6.0mph /  9.7km/h 14.0mph /  22.5km/h 53% 0.00in /  0mm
12:40 54.9 °F /  12.7 °C 37.1 °F /  2.8 °C 30.24in /  1023.9hPa South 6.0mph /  9.7km/h 14.0mph /  22.5km/h 51% 0.00in /  0mm
12:45 55.1 °F /  12.8 °C 36.8 °F /  2.7 °C 30.24in /  1023.9hPa South 7.0mph /  11.3km/h 12.0mph /  19.3km/h 50% 0.00in /  0mm
12:50 55.3 °F /  12.9 °C 37.0 °F /  2.8 °C 30.24in /  1023.9hPa SSW 4.0mph /  6.4km/h 12.0mph /  19.3km/h 50% 0.00in /  0mm
12:55 55.1 °F /  12.8 °C 36.8 °F /  2.7 °C 30.24in /  1023.9hPa SSW 7.0mph /  11.3km/h 15.0mph /  24.1km/h 50% 0.00in /  0mm
13:00 54.8 °F /  12.7 °C 36.5 °F /  2.5 °C 30.23in /  1023.6hPa SSW 9.0mph /  14.5km/h 15.0mph /  24.1km/h 50% 0.00in /  0mm
13:05 54.5 °F /  12.5 °C 36.2 °F /  2.3 °C 30.22in /  1023.2hPa SW 7.0mph /  11.3km/h 15.0mph /  24.1km/h 50% 0.00in /  0mm
13:10 55.3 °F /  12.9 °C 37.0 °F /  2.8 °C 30.22in /  1023.2hPa SW 5.0mph /  8km/h 14.0mph /  22.5km/h 50% 0.00in /  0mm
13:15 55.5 °F /  13.1 °C 36.7 °F /  2.6 °C 30.22in /  1023.2hPa SSW 8.0mph /  12.9km/h 14.0mph /  22.5km/h 49% 0.00in /  0mm
13:25 55.9 °F /  13.3 °C 37.5 °F /  3.1 °C 30.22in /  1023.2hPa SW 5.0mph /  8km/h 15.0mph /  24.1km/h 50% 0.00in /  0mm
13:30 56.1 °F /  13.4 °C 37.2 °F /  2.9 °C 30.21in /  1022.9hPa SW 6.0mph /  9.7km/h 14.0mph /  22.5km/h 49% 0.00in /  0mm
13:35 56.4 °F /  13.6 °C 38.0 °F /  3.3 °C 30.21in /  1022.9hPa SW 3.0mph /  4.8km/h 14.0mph /  22.5km/h 50% 0.00in /  0mm
13:40 56.6 °F /  13.7 °C 36.6 °F /  2.6 °C 30.21in /  1022.9hPa SSW 9.0mph /  14.5km/h 14.0mph /  22.5km/h 47% 0.00in /  0mm
13:45 56.3 °F /  13.5 °C 36.9 °F /  2.7 °C 30.20in /  1022.6hPa SW 8.0mph /  12.9km/h 14.0mph /  22.5km/h 48% 0.00in /  0mm
13:50 56.3 °F /  13.5 °C 36.9 °F /  2.7 °C 30.20in /  1022.6hPa SSW 7.0mph /  11.3km/h 14.0mph /  22.5km/h 48% 0.00in /  0mm
13:55 56.5 °F /  13.6 °C 37.1 °F /  2.8 °C 30.20in /  1022.6hPa SSW 7.0mph /  11.3km/h 14.0mph /  22.5km/h 48% 0.00in /  0mm
14:00 56.6 °F /  13.7 °C 36.6 °F /  2.6 °C 30.20in /  1022.6hPa SSW 9.0mph /  14.5km/h 14.0mph /  22.5km/h 47% 0.00in /  0mm
14:05 56.6 °F /  13.7 °C 36.6 °F /  2.6 °C 30.20in /  1022.6hPa SSW 8.0mph /  12.9km/h 14.0mph /  22.5km/h 47% 0.00in /  0mm
14:10 56.8 °F /  13.8 °C 37.3 °F /  2.9 °C 30.20in /  1022.6hPa SSW 6.0mph /  9.7km/h 14.0mph /  22.5km/h 48% 0.00in /  0mm
14:15 56.8 °F /  13.8 °C 36.8 °F /  2.7 °C 30.20in /  1022.6hPa SSW 9.0mph /  14.5km/h 15.0mph /  24.1km/h 47% 0.00in /  0mm
14:20 57.0 °F /  13.9 °C 37.5 °F /  3.1 °C 30.19in /  1022.2hPa SW 4.0mph /  6.4km/h 15.0mph /  24.1km/h 48% 0.00in /  0mm
14:25 57.2 °F /  14 °C 37.2 °F /  2.9 °C 30.19in /  1022.2hPa SW 9.0mph /  14.5km/h 15.0mph /  24.1km/h 47% 0.00in /  0mm
14:35 57.2 °F /  14 °C 36.6 °F /  2.6 °C 30.19in /  1022.2hPa SSW 9.0mph /  14.5km/h 14.0mph /  22.5km/h 46% 0.00in /  0mm
14:40 57.5 °F /  14.2 °C 38.0 °F /  3.3 °C 30.19in /  1022.2hPa SSW 5.0mph /  8km/h 14.0mph /  22.5km/h 48% 0.00in /  0mm
14:45 58.2 °F /  14.6 °C 38.1 °F /  3.4 °C 30.19in /  1022.2hPa SW 5.0mph /  8km/h 12.0mph /  19.3km/h 47% 0.00in /  0mm
14:50 58.2 °F /  14.6 °C 38.1 °F /  3.4 °C 30.19in /  1022.2hPa SSW 7.0mph /  11.3km/h 13.0mph /  20.9km/h 47% 0.00in /  0mm
14:55 58.4 °F /  14.7 °C 37.7 °F /  3.2 °C 30.18in /  1021.9hPa SSW 7.0mph /  11.3km/h 14.0mph /  22.5km/h 46% 0.00in /  0mm
15:00 58.1 °F /  14.5 °C 38.0 °F /  3.3 °C 30.18in /  1021.9hPa SSW 6.0mph /  9.7km/h 15.0mph /  24.1km/h 47% 0.00in /  0mm
15:05 57.8 °F /  14.3 °C 37.2 °F /  2.9 °C 30.18in /  1021.9hPa SSW 10.0mph /  16.1km/h 18.0mph /  29km/h 46% 0.00in /  0mm
15:10 57.3 °F /  14.1 °C 37.3 °F /  2.9 °C 30.18in /  1021.9hPa SSW 8.0mph /  12.9km/h 18.0mph /  29km/h 47% 0.00in /  0mm
15:15 57.3 °F /  14.1 °C 37.8 °F /  3.2 °C 30.18in /  1021.9hPa SSW 7.0mph /  11.3km/h 13.0mph /  20.9km/h 48% 0.00in /  0mm
15:20 57.4 °F /  14.1 °C 37.3 °F /  2.9 °C 30.18in /  1021.9hPa SSW 8.0mph /  12.9km/h 13.0mph /  20.9km/h 47% 0.00in /  0mm
15:25 56.9 °F /  13.8 °C 36.9 °F /  2.7 °C 30.18in /  1021.9hPa SW 8.0mph /  12.9km/h 17.0mph /  27.4km/h 47% 0.00in /  0mm
15:30 56.7 °F /  13.7 °C 37.2 °F /  2.9 °C 30.18in /  1021.9hPa SSW 7.0mph /  11.3km/h 17.0mph /  27.4km/h 48% 0.00in /  0mm
15:35 56.7 °F /  13.7 °C 37.2 °F /  2.9 °C 30.18in /  1021.9hPa SSW 9.0mph /  14.5km/h 18.0mph /  29km/h 48% 0.00in /  0mm
15:40 56.7 °F /  13.7 °C 37.2 °F /  2.9 °C 30.18in /  1021.9hPa SSW 7.0mph /  11.3km/h 18.0mph /  29km/h 48% 0.00in /  0mm
15:45 56.8 °F /  13.8 °C 37.3 °F /  2.9 °C 30.18in /  1021.9hPa SSW 8.0mph /  12.9km/h 15.0mph /  24.1km/h 48% 0.00in /  0mm
15:50 56.6 °F /  13.7 °C 37.1 °F /  2.8 °C 30.18in /  1021.9hPa SSW 5.0mph /  8km/h 14.0mph /  22.5km/h 48% 0.00in /  0mm
15:55 56.4 °F /  13.6 °C 37.0 °F /  2.8 °C 30.18in /  1021.9hPa SSW 6.0mph /  9.7km/h 11.0mph /  17.7km/h 48% 0.00in /  0mm
16:00 56.7 °F /  13.7 °C 37.2 °F /  2.9 °C 30.18in /  1021.9hPa South 7.0mph /  11.3km/h 12.0mph /  19.3km/h 48% 0.00in /  0mm
16:05 56.9 °F /  13.8 °C 37.4 °F /  3 °C 30.18in /  1021.9hPa SSW 6.0mph /  9.7km/h 16.0mph /  25.7km/h 48% 0.00in /  0mm
16:10 56.8 °F /  13.8 °C 37.3 °F /  2.9 °C 30.18in /  1021.9hPa SSW 7.0mph /  11.3km/h 16.0mph /  25.7km/h 48% 0.00in /  0mm
16:15 56.3 °F /  13.5 °C 36.9 °F /  2.7 °C 30.18in /  1021.9hPa SW 6.0mph /  9.7km/h 13.0mph /  20.9km/h 48% 0.00in /  0mm
16:20 55.5 °F /  13.1 °C 36.7 °F /  2.6 °C 30.18in /  1021.9hPa SW 6.0mph /  9.7km/h 14.0mph /  22.5km/h 49% 0.00in /  0mm
16:30 54.8 °F /  12.7 °C 37.0 °F /  2.8 °C 30.17in /  1021.6hPa SSW 7.0mph /  11.3km/h 14.0mph /  22.5km/h 51% 0.00in /  0mm
16:35 54.8 °F /  12.7 °C 36.5 °F /  2.5 °C 30.18in /  1021.9hPa SSW 6.0mph /  9.7km/h 16.0mph /  25.7km/h 50% 0.00in /  0mm
16:40 54.8 °F /  12.7 °C 36.5 °F /  2.5 °C 30.18in /  1021.9hPa SSW 7.0mph /  11.3km/h 16.0mph /  25.7km/h 50% 0.00in /  0mm
16:45 54.6 °F /  12.6 °C 36.3 °F /  2.4 °C 30.18in /  1021.9hPa SSW 6.0mph /  9.7km/h 13.0mph /  20.9km/h 50% 0.00in /  0mm
16:50 54.1 °F /  12.3 °C 36.4 °F /  2.4 °C 30.17in /  1021.6hPa SSW 8.0mph /  12.9km/h 17.0mph /  27.4km/h 51% 0.00in /  0mm
16:55 53.6 °F /  12 °C 36.4 °F /  2.4 °C 30.17in /  1021.6hPa SSW 7.0mph /  11.3km/h 17.0mph /  27.4km/h 52% 0.00in /  0mm
17:00 53.3 °F /  11.8 °C 36.1 °F /  2.3 °C 30.17in /  1021.6hPa SSW 7.0mph /  11.3km/h 15.0mph /  24.1km/h 52% 0.00in /  0mm
17:05 53.3 °F /  11.8 °C 36.6 °F /  2.6 °C 30.17in /  1021.6hPa SSW 6.0mph /  9.7km/h 15.0mph /  24.1km/h 53% 0.00in /  0mm
17:10 53.2 °F /  11.8 °C 36.5 °F /  2.5 °C 30.17in /  1021.6hPa SSW 4.0mph /  6.4km/h 12.0mph /  19.3km/h 53% 0.00in /  0mm
17:15 53.0 °F /  11.7 °C 36.3 °F /  2.4 °C 30.17in /  1021.6hPa SSW 4.0mph /  6.4km/h 8.0mph /  12.9km/h 53% 0.00in /  0mm
17:20 52.7 °F /  11.5 °C 36.5 °F /  2.5 °C 30.17in /  1021.6hPa SSW 5.0mph /  8km/h 8.0mph /  12.9km/h 54% 0.00in /  0mm
17:25 52.4 °F /  11.3 °C 36.2 °F /  2.3 °C 30.17in /  1021.6hPa South 4.0mph /  6.4km/h 11.0mph /  17.7km/h 54% 0.00in /  0mm
17:30 52.1 °F /  11.2 °C 36.4 °F /  2.4 °C 30.17in /  1021.6hPa SW 3.0mph /  4.8km/h 11.0mph /  17.7km/h 55% 0.00in /  0mm
17:35 51.8 °F /  11 °C 36.2 °F /  2.3 °C 30.17in /  1021.6hPa SSW 6.0mph /  9.7km/h 10.0mph /  16.1km/h 55% 0.00in /  0mm
17:40 51.6 °F /  10.9 °C 36.0 °F /  2.2 °C 30.17in /  1021.6hPa SSW 6.0mph /  9.7km/h 12.0mph /  19.3km/h 55% 0.00in /  0mm
17:45 51.5 °F /  10.8 °C 36.3 °F /  2.4 °C 30.17in /  1021.6hPa SSW 4.0mph /  6.4km/h 12.0mph /  19.3km/h 56% 0.00in /  0mm
17:50 51.3 °F /  10.7 °C 36.1 °F /  2.3 °C 30.17in /  1021.6hPa SSW 6.0mph /  9.7km/h 12.0mph /  19.3km/h 56% 0.00in /  0mm
17:55 51.1 °F /  10.6 °C 36.0 °F /  2.2 °C 30.17in /  1021.6hPa SSW 5.0mph /  8km/h 12.0mph /  19.3km/h 56% 0.00in /  0mm
18:00 50.8 °F /  10.4 °C 36.1 °F /  2.3 °C 30.17in /  1021.6hPa SW 5.0mph /  8km/h 12.0mph /  19.3km/h 57% 0.00in /  0mm
18:05 50.7 °F /  10.4 °C 36.0 °F /  2.2 °C 30.17in /  1021.6hPa SSW 3.0mph /  4.8km/h 12.0mph /  19.3km/h 57% 0.00in /  0mm
18:10 50.6 °F /  10.3 °C 35.9 °F /  2.2 °C 30.17in /  1021.6hPa SSW 5.0mph /  8km/h 12.0mph /  19.3km/h 57% 0.00in /  0mm
18:15 50.6 °F /  10.3 °C 35.9 °F /  2.2 °C 30.17in /  1021.6hPa SSW 5.0mph /  8km/h 12.0mph /  19.3km/h 57% 0.00in /  0mm
18:20 50.6 °F /  10.3 °C 35.9 °F /  2.2 °C 30.17in /  1021.6hPa SSW 5.0mph /  8km/h 13.0mph /  20.9km/h 57% 0.00in /  0mm
18:30 50.5 °F /  10.3 °C 35.8 °F /  2.1 °C 30.17in /  1021.6hPa SSW 5.0mph /  8km/h 12.0mph /  19.3km/h 57% 0.00in /  0mm
18:35 50.5 °F /  10.3 °C 35.8 °F /  2.1 °C 30.17in /  1021.6hPa SSW 6.0mph /  9.7km/h 13.0mph /  20.9km/h 57% 0.00in /  0mm
18:40 50.5 °F /  10.3 °C 35.4 °F /  1.9 °C 30.17in /  1021.6hPa SSW 7.0mph /  11.3km/h 13.0mph /  20.9km/h 56% 0.00in /  0mm
18:45 50.4 °F /  10.2 °C 35.3 °F /  1.8 °C 30.17in /  1021.6hPa SSW 6.0mph /  9.7km/h 13.0mph /  20.9km/h 56% 0.00in /  0mm
18:50 50.3 °F /  10.2 °C 35.7 °F /  2.1 °C 30.17in /  1021.6hPa SSW 6.0mph /  9.7km/h 12.0mph /  19.3km/h 57% 0.00in /  0mm
18:55 50.1 °F /  10.1 °C 35.5 °F /  1.9 °C 30.16in /  1021.2hPa SSW 7.0mph /  11.3km/h 15.0mph /  24.1km/h 57% 0.00in /  0mm
19:00 50.2 °F /  10.1 °C 35.1 °F /  1.7 °C 30.16in /  1021.2hPa SSW 8.0mph /  12.9km/h 15.0mph /  24.1km/h 56% 0.00in /  0mm
19:05 50.2 °F /  10.1 °C 35.1 °F /  1.7 °C 30.16in /  1021.2hPa SSW 6.0mph /  9.7km/h 16.0mph /  25.7km/h 56% 0.00in /  0mm
19:10 50.3 °F /  10.2 °C 35.2 °F /  1.8 °C 30.16in /  1021.2hPa SSW 7.0mph /  11.3km/h 16.0mph /  25.7km/h 56% 0.00in /  0mm
19:15 50.2 °F /  10.1 °C 35.1 °F /  1.7 °C 30.16in /  1021.2hPa SSW 7.0mph /  11.3km/h 16.0mph /  25.7km/h 56% 0.00in /  0mm
19:20 50.1 °F /  10.1 °C 35.0 °F /  1.7 °C 30.16in /  1021.2hPa SSW 7.0mph /  11.3km/h 16.0mph /  25.7km/h 56% 0.00in /  0mm
19:25 50.0 °F /  10 °C 34.9 °F /  1.6 °C 30.16in /  1021.2hPa SSW 8.0mph /  12.9km/h 15.0mph /  24.1km/h 56% 0.00in /  0mm
19:30 50.0 °F /  10 °C 35.4 °F /  1.9 °C 30.16in /  1021.2hPa SSW 8.0mph /  12.9km/h 15.0mph /  24.1km/h 57% 0.00in /  0mm
19:35 50.0 °F /  10 °C 35.4 °F /  1.9 °C 30.16in /  1021.2hPa SSW 8.0mph /  12.9km/h 15.0mph /  24.1km/h 57% 0.00in /  0mm
19:40 49.8 °F /  9.9 °C 35.2 °F /  1.8 °C 30.16in /  1021.2hPa SSW 7.0mph /  11.3km/h 16.0mph /  25.7km/h 57% 0.00in /  0mm
19:45 49.8 °F /  9.9 °C 35.2 °F /  1.8 °C 30.16in /  1021.2hPa SSW 7.0mph /  11.3km/h 16.0mph /  25.7km/h 57% 0.00in /  0mm
19:50 49.7 °F /  9.8 °C 35.1 °F /  1.7 °C 30.15in /  1020.9hPa SSW 9.0mph /  14.5km/h 17.0mph /  27.4km/h 57% 0.00in /  0mm
19:55 49.6 °F /  9.8 °C 35.0 °F /  1.7 °C 30.15in /  1020.9hPa SSW 9.0mph /  14.5km/h 18.0mph /  29km/h 57% 0.00in /  0mm
20:00 49.5 °F /  9.7 °C 35.3 °F /  1.8 °C 30.15in /  1020.9hPa SSW 6.0mph /  9.7km/h 18.0mph /  29km/h 58% 0.00in /  0mm
20:05 49.4 °F /  9.7 °C 35.2 °F /  1.8 °C 30.15in /  1020.9hPa SW 7.0mph /  11.3km/h 14.0mph /  22.5km/h 58% 0.00in /  0mm
20:10 49.2 °F /  9.6 °C 35.1 °F /  1.7 °C 30.15in /  1020.9hPa SSW 6.0mph /  9.7km/h 14.0mph /  22.5km/h 58% 0.00in /  0mm
20:15 49.2 °F /  9.6 °C 35.1 °F /  1.7 °C 30.15in /  1020.9hPa SSW 7.0mph /  11.3km/h 14.0mph /  22.5km/h 58% 0.00in /  0mm
20:20 49.0 °F /  9.4 °C 34.9 °F /  1.6 °C 30.14in /  1020.5hPa SSW 7.0mph /  11.3km/h 15.0mph /  24.1km/h 58% 0.00in /  0mm
20:30 49.0 °F /  9.4 °C 34.9 °F /  1.6 °C 30.14in /  1020.5hPa SSW 8.0mph /  12.9km/h 14.0mph /  22.5km/h 58% 0.00in /  0mm
20:35 49.0 °F /  9.4 °C 35.3 °F /  1.8 °C 30.14in /  1020.5hPa SSW 8.0mph /  12.9km/h 14.0mph /  22.5km/h 59% 0.00in /  0mm
20:45 48.8 °F /  9.3 °C 35.1 °F /  1.7 °C 30.13in /  1020.2hPa SW 7.0mph /  11.3km/h 15.0mph /  24.1km/h 59% 0.00in /  0mm
20:50 48.9 °F /  9.4 °C 35.2 °F /  1.8 °C 30.13in /  1020.2hPa SW 8.0mph /  12.9km/h 13.0mph /  20.9km/h 59% 0.00in /  0mm
20:55 48.7 °F /  9.3 °C 35.0 °F /  1.7 °C 30.12in /  1019.9hPa SSW 7.0mph /  11.3km/h 13.0mph /  20.9km/h 59% 0.00in /  0mm
21:00 48.7 °F /  9.3 °C 35.0 °F /  1.7 °C 30.12in /  1019.9hPa SSW 7.0mph /  11.3km/h 13.0mph /  20.9km/h 59% 0.00in /  0mm
21:05 48.7 °F /  9.3 °C 35.0 °F /  1.7 °C 30.12in /  1019.9hPa SSW 7.0mph /  11.3km/h 14.0mph /  22.5km/h 59% 0.00in /  0mm
21:10 48.6 °F /  9.2 °C 34.9 °F /  1.6 °C 30.12in /  1019.9hPa SW 6.0mph /  9.7km/h 14.0mph /  22.5km/h 59% 0.00in /  0mm
21:15 48.5 °F /  9.2 °C 35.3 °F /  1.8 °C 30.12in /  1019.9hPa SW 8.0mph /  12.9km/h 14.0mph /  22.5km/h 60% 0.00in /  0mm
21:20 48.3 °F /  9.1 °C 35.1 °F /  1.7 °C 30.12in /  1019.9hPa SSW 7.0mph /  11.3km/h 13.0mph /  20.9km/h 60% 0.00in /  0mm
21:25 48.4 °F /  9.1 °C 35.2 °F /  1.8 °C 30.12in /  1019.9hPa SSW 7.0mph /  11.3km/h 14.0mph /  22.5km/h 60% 0.00in /  0mm
21:35 48.4 °F /  9.1 °C 35.2 °F /  1.8 °C 30.11in /  1019.5hPa SSW 7.0mph /  11.3km/h 13.0mph /  20.9km/h 60% 0.00in /  0mm
21:40 48.5 °F /  9.2 °C 35.3 °F /  1.8 °C 30.11in /  1019.5hPa SSW 7.0mph /  11.3km/h 18.0mph /  29km/h 60% 0.00in /  0mm
21:45 48.6 °F /  9.2 °C 35.3 °F /  1.8 °C 30.11in /  1019.5hPa SSW 8.0mph /  12.9km/h 18.0mph /  29km/h 60% 0.00in /  0mm
21:50 48.7 °F /  9.3 °C 35.4 °F /  1.9 °C 30.11in /  1019.5hPa SSW 7.0mph /  11.3km/h 14.0mph /  22.5km/h 60% 0.00in /  0mm
21:55 48.7 °F /  9.3 °C 35.4 °F /  1.9 °C 30.12in /  1019.9hPa SSW 8.0mph /  12.9km/h 17.0mph /  27.4km/h 60% 0.00in /  0mm
22:00 48.7 °F /  9.3 °C 35.4 °F /  1.9 °C 30.12in /  1019.9hPa SSW 8.0mph /  12.9km/h 17.0mph /  27.4km/h 60% 0.00in /  0mm
22:05 48.8 °F /  9.3 °C 35.1 °F /  1.7 °C 30.12in /  1019.9hPa SSW 7.0mph /  11.3km/h 14.0mph /  22.5km/h 59% 0.00in /  0mm
22:10 48.9 °F /  9.4 °C 35.6 °F /  2 °C 30.13in /  1020.2hPa SSW 5.0mph /  8km/h 15.0mph /  24.1km/h 60% 0.00in /  0mm
22:15 49.0 °F /  9.4 °C 35.3 °F /  1.8 °C 30.13in /  1020.2hPa SSW 7.0mph /  11.3km/h 15.0mph /  24.1km/h 59% 0.00in /  0mm
22:25 49.1 °F /  9.5 °C 35.4 °F /  1.9 °C 30.13in /  1020.2hPa SSW 6.0mph /  9.7km/h 13.0mph /  20.9km/h 59% 0.00in /  0mm
22:30 49.2 °F /  9.6 °C 35.5 °F /  1.9 °C 30.12in /  1019.9hPa SSW 7.0mph /  11.3km/h 16.0mph /  25.7km/h 59% 0.00in /  0mm
22:40 49.2 °F /  9.6 °C 35.5 °F /  1.9 °C 30.12in /  1019.9hPa SSW 7.0mph /  11.3km/h 16.0mph /  25.7km/h 59% 0.00in /  0mm
22:45 49.2 °F /  9.6 °C 35.5 °F /  1.9 °C 30.12in /  1019.9hPa SSW 7.0mph /  11.3km/h 16.0mph /  25.7km/h 59% 0.00in /  0mm
22:50 49.2 °F /  9.6 °C 35.5 °F /  1.9 °C 30.12in /  1019.9hPa SSW 7.0mph /  11.3km/h 18.0mph /  29km/h 59% 0.00in /  0mm
22:55 49.2 °F /  9.6 °C 35.5 °F /  1.9 °C 30.12in /  1019.9hPa SSW 6.0mph /  9.7km/h 18.0mph /  29km/h 59% 0.00in /  0mm
23:00 49.0 °F /  9.4 °C 35.3 °F /  1.8 °C 30.12in /  1019.9hPa SSW 5.0mph /  8km/h 15.0mph /  24.1km/h 59% 0.00in /  0mm
23:05 49.0 °F /  9.4 °C 35.3 °F /  1.8 °C 30.11in /  1019.5hPa SSW 9.0mph /  14.5km/h 17.0mph /  27.4km/h 59% 0.00in /  0mm
23:10 49.0 °F /  9.4 °C 35.3 °F /  1.8 °C 30.11in /  1019.5hPa SSW 5.0mph /  8km/h 17.0mph /  27.4km/h 59% 0.00in /  0mm
23:15 48.8 °F /  9.3 °C 35.1 °F /  1.7 °C 30.11in /  1019.5hPa SSW 4.0mph /  6.4km/h 14.0mph /  22.5km/h 59% 0.00in /  0mm
23:20 48.8 °F /  9.3 °C 35.1 °F /  1.7 °C 30.11in /  1019.5hPa SSW 8.0mph /  12.9km/h 12.0mph /  19.3km/h 59% 0.00in /  0mm
23:25 48.9 °F /  9.4 °C 35.2 °F /  1.8 °C 30.11in /  1019.5hPa SSW 6.0mph /  9.7km/h 13.0mph /  20.9km/h 59% 0.00in /  0mm
23:30 48.8 °F /  9.3 °C 35.1 °F /  1.7 °C 30.11in /  1019.5hPa SSW 6.0mph /  9.7km/h 13.0mph /  20.9km/h 59% 0.00in /  0mm
23:40 48.6 °F /  9.2 °C 35.3 °F /  1.8 °C 30.11in /  1019.5hPa SSW 7.0mph /  11.3km/h 16.0mph /  25.7km/h 60% 0.00in /  0mm
23:45 48.6 °F /  9.2 °C 34.9 °F /  1.6 °C 30.11in /  1019.5hPa SSW 6.0mph /  9.7km/h 16.0mph /  25.7km/h 59% 0.00in /  0mm
23:50 48.6 °F /  9.2 °C 34.9 °F /  1.6 °C 30.10in /  1019.2hPa SSW 6.0mph /  9.7km/h 16.0mph /  25.7km/h 59% 0.00in /  0mm
23:55 48.7 °F /  9.3 °C 35.0 °F /  1.7 °C 30.10in /  1019.2hPa South 7.0mph /  11.3km/h 15.0mph /  24.1km/h 59% 0.00in /  0mm
Westford Weather
Compliments of Weather Underground

 
 
Current Radar Loop:

Copyright © WestfordWeather.net 2007-2014. All rights reserved.